createdAt,value
2023-04-16T00:04:34.543Z,12.68
2023-04-16T00:09:37.157Z,12.59
2023-04-16T00:14:39.642Z,12.61
2023-04-16T00:19:42.125Z,12.56
2023-04-16T00:24:45.164Z,12.51
2023-04-16T00:29:47.751Z,12.49
2023-04-16T00:34:50.264Z,12.43
2023-04-16T00:39:52.839Z,12.24
2023-04-16T00:44:55.414Z,12.09
2023-04-16T00:49:57.985Z,12.46
2023-04-16T00:55:00.976Z,12.81
2023-04-16T01:00:04.104Z,12.90
2023-04-16T01:05:06.818Z,12.98
2023-04-16T01:10:09.382Z,13.08
2023-04-16T01:15:11.932Z,13.07
2023-04-16T01:20:14.750Z,13.09
2023-04-16T01:25:17.693Z,13.10
2023-04-16T01:30:20.292Z,13.10
2023-04-16T01:35:22.806Z,13.08
2023-04-16T01:40:25.468Z,12.90
2023-04-16T01:45:28.027Z,12.84
2023-04-16T01:50:31.180Z,12.77
2023-04-16T01:55:34.342Z,12.82
2023-04-16T02:00:36.953Z,12.93
2023-04-16T02:05:39.995Z,12.99
2023-04-16T02:10:42.476Z,13.02
2023-04-16T02:15:49.797Z,13.11
2023-04-16T02:20:52.303Z,13.20
2023-04-16T02:25:55.106Z,13.17
2023-04-16T02:30:57.606Z,13.01
2023-04-16T02:36:00.318Z,12.94
2023-04-16T02:41:03.104Z,12.83
2023-04-16T02:46:05.851Z,12.84
2023-04-16T02:51:08.733Z,12.86
2023-04-16T02:56:12.140Z,12.74
2023-04-16T03:01:14.695Z,12.69
2023-04-16T03:06:17.265Z,12.70
2023-04-16T03:11:20.315Z,12.59
2023-04-16T03:16:23.160Z,12.37
2023-04-16T03:21:27.510Z,12.14
2023-04-16T03:26:30.257Z,12.10
2023-04-16T03:31:32.838Z,12.11
2023-04-16T03:36:35.377Z,12.03
2023-04-16T03:41:37.903Z,11.89
2023-04-16T03:46:40.457Z,11.94
2023-04-16T03:51:43.010Z,11.92
2023-04-16T03:56:45.560Z,12.02
2023-04-16T04:01:48.228Z,12.02
2023-04-16T04:06:50.861Z,12.06
2023-04-16T04:11:53.409Z,12.09
2023-04-16T04:16:55.953Z,12.22
2023-04-16T04:21:58.705Z,12.25
2023-04-16T04:27:02.077Z,12.36
2023-04-16T04:32:05.021Z,12.34
2023-04-16T04:37:07.628Z,12.32
2023-04-16T04:42:10.381Z,12.28
2023-04-16T04:47:13.683Z,12.23
2023-04-16T04:52:16.251Z,12.23
2023-04-16T04:57:18.847Z,12.21
2023-04-16T05:02:21.520Z,12.15
2023-04-16T05:07:24.219Z,11.94
2023-04-16T05:12:26.721Z,11.96
2023-04-16T05:17:29.600Z,11.99
2023-04-16T05:22:32.270Z,11.88
2023-04-16T05:27:34.909Z,11.82
2023-04-16T05:32:39.370Z,11.84
2023-04-16T05:37:42.101Z,11.94
2023-04-16T05:42:44.625Z,12.05
2023-04-16T05:47:47.667Z,11.95
2023-04-16T05:52:50.255Z,11.94
2023-04-16T05:57:52.774Z,11.89
2023-04-16T06:02:55.700Z,11.91
2023-04-16T06:07:58.426Z,11.92
2023-04-16T06:13:00.989Z,12.31
2023-04-16T06:18:03.602Z,12.48
2023-04-16T06:23:06.237Z,12.63
2023-04-16T06:28:08.785Z,13.12
2023-04-16T06:33:11.372Z,13.23
2023-04-16T06:38:14.518Z,13.47
2023-04-16T06:43:17.979Z,12.77
2023-04-16T06:48:20.636Z,11.38
2023-04-16T06:53:25.127Z,12.25
2023-04-16T06:58:27.861Z,12.90
2023-04-16T07:03:31.312Z,13.43
2023-04-16T07:08:33.923Z,14.82
2023-04-16T07:13:36.406Z,13.97
2023-04-16T07:18:39.041Z,11.87
2023-04-16T07:23:41.757Z,11.94
2023-04-16T07:28:44.382Z,14.28
2023-04-16T07:33:46.875Z,14.28
2023-04-16T07:38:49.372Z,12.22
2023-04-16T07:43:51.959Z,13.24
2023-04-16T07:48:54.434Z,13.87
2023-04-16T07:53:57.102Z,13.63
2023-04-16T07:59:14.912Z,11.73
2023-04-16T08:04:26.417Z,12.05
2023-04-16T08:09:29.492Z,13.79
2023-04-16T08:14:32.281Z,14.74
2023-04-16T08:19:34.829Z,14.18
2023-04-16T08:24:37.857Z,12.60
2023-04-16T08:29:40.412Z,13.61
2023-04-16T08:34:43.347Z,14.39
2023-04-16T08:39:46.114Z,14.07
2023-04-16T08:44:50.369Z,12.38
2023-04-16T08:49:58.402Z,13.68
2023-04-16T08:55:08.705Z,13.50
2023-04-16T09:00:13.356Z,11.79
2023-04-16T09:05:21.631Z,12.58
2023-04-16T09:10:26.388Z,13.43
2023-04-16T09:15:29.495Z,13.71
2023-04-16T09:20:32.000Z,13.60
2023-04-16T09:25:35.210Z,13.66
2023-04-16T09:30:38.043Z,12.27
2023-04-16T09:35:54.167Z,10.94
2023-04-16T09:41:13.442Z,11.76
2023-04-16T09:46:16.018Z,13.10
2023-04-16T09:51:18.607Z,13.75
2023-04-16T09:56:25.900Z,13.17
2023-04-16T10:01:30.926Z,11.73
2023-04-16T10:06:35.500Z,11.92
2023-04-16T10:11:39.356Z,13.49
2023-04-16T10:16:43.965Z,13.86
2023-04-16T10:21:47.413Z,12.38
2023-04-16T10:26:52.228Z,12.46
2023-04-16T10:31:56.772Z,13.70
2023-04-16T10:36:59.284Z,13.13
2023-04-16T10:42:17.044Z,11.61
2023-04-16T10:47:19.806Z,11.86
2023-04-16T10:52:26.118Z,13.48
2023-04-16T10:57:29.879Z,13.73
2023-04-16T11:02:32.896Z,12.21
2023-04-16T11:07:36.082Z,11.23
2023-04-16T11:12:41.354Z,11.64
2023-04-16T11:17:46.361Z,13.54
2023-04-16T11:22:50.490Z,14.28
2023-04-16T11:27:53.792Z,13.69
2023-04-16T11:32:56.594Z,11.92
2023-04-16T11:37:59.544Z,10.90
2023-04-16T11:43:13.884Z,11.26
2023-04-16T11:48:16.562Z,12.83
2023-04-16T11:53:19.423Z,13.66
2023-04-16T11:58:23.370Z,14.21
2023-04-16T12:03:46.214Z,14.00
2023-04-16T12:08:49.053Z,12.32
2023-04-16T12:14:09.858Z,11.93
2023-04-16T12:19:13.574Z,13.19
2023-04-16T12:24:20.849Z,14.19
2023-04-16T12:29:27.941Z,13.58
2023-04-16T12:34:49.247Z,11.86
2023-04-16T12:39:52.266Z,11.67
2023-04-16T12:44:54.772Z,12.86
2023-04-16T12:49:57.931Z,13.44
2023-04-16T12:55:02.835Z,13.22
2023-04-16T13:00:10.606Z,11.62
2023-04-16T13:05:16.545Z,10.84
2023-04-16T13:10:21.456Z,11.79
2023-04-16T13:15:24.847Z,13.12
2023-04-16T13:20:29.057Z,13.96
2023-04-16T13:25:31.798Z,13.81
2023-04-16T13:30:34.680Z,12.30
2023-04-16T13:35:37.355Z,11.34
2023-04-16T13:40:40.107Z,11.77
2023-04-16T13:45:42.698Z,13.24
2023-04-16T13:50:45.289Z,14.06
2023-04-16T13:55:49.565Z,13.94
2023-04-16T14:00:52.280Z,12.44
2023-04-16T14:05:54.981Z,12.03
2023-04-16T14:10:58.372Z,13.26
2023-04-16T14:16:02.956Z,14.17
2023-04-16T14:21:05.807Z,14.26
2023-04-16T14:26:08.476Z,13.08
2023-04-16T14:31:11.134Z,12.35
2023-04-16T14:36:14.189Z,11.90
2023-04-16T14:41:16.961Z,11.74
2023-04-16T14:46:19.664Z,12.32
2023-04-16T14:51:22.541Z,14.01
2023-04-16T14:56:25.821Z,14.93
2023-04-16T15:01:28.597Z,14.45
2023-04-16T15:06:32.294Z,13.06
2023-04-16T15:11:35.299Z,12.13
2023-04-16T15:16:37.975Z,11.37
2023-04-16T15:21:40.878Z,11.38
2023-04-16T15:26:43.777Z,12.69
2023-04-16T15:31:47.663Z,13.67
2023-04-16T15:36:50.623Z,14.26
2023-04-16T15:42:01.486Z,14.01
2023-04-16T15:47:06.437Z,12.47
2023-04-16T15:52:11.163Z,11.41
2023-04-16T15:57:13.696Z,11.35
2023-04-16T16:02:16.333Z,12.83
2023-04-16T16:07:19.966Z,13.81
2023-04-16T16:12:22.564Z,13.76
2023-04-16T16:17:25.585Z,12.35
2023-04-16T16:22:28.586Z,11.39
2023-04-16T16:27:31.144Z,10.76
2023-04-16T16:32:34.058Z,10.95
2023-04-16T16:37:37.670Z,12.44
2023-04-16T16:42:40.198Z,13.38
2023-04-16T16:47:42.783Z,13.40
2023-04-16T16:52:45.387Z,11.87
2023-04-16T16:57:47.932Z,10.94
2023-04-16T17:02:51.912Z,11.02
2023-04-16T17:07:54.718Z,12.59
2023-04-16T17:12:57.241Z,13.45
2023-04-16T17:17:59.834Z,13.88
2023-04-16T17:23:02.980Z,12.83
2023-04-16T17:28:05.548Z,11.44
2023-04-16T17:33:08.164Z,10.62
2023-04-16T17:38:11.697Z,10.69
2023-04-16T17:43:14.207Z,12.22
2023-04-16T17:48:16.789Z,13.06
2023-04-16T17:53:19.518Z,13.62
2023-04-16T17:58:22.156Z,13.40
2023-04-16T18:03:24.940Z,11.81
2023-04-16T18:08:28.775Z,10.86
2023-04-16T18:13:31.427Z,10.91
2023-04-16T18:18:34.231Z,12.40
2023-04-16T18:23:36.761Z,13.11
2023-04-16T18:28:39.411Z,13.65
2023-04-16T18:33:53.998Z,14.01
2023-04-16T18:39:01.615Z,12.39
2023-04-16T18:44:05.246Z,11.17
2023-04-16T18:49:07.825Z,11.03
2023-04-16T18:54:10.407Z,12.48
2023-04-16T18:59:13.330Z,13.25
2023-04-16T19:04:16.276Z,13.77
2023-04-16T19:09:19.934Z,14.09
2023-04-16T19:14:22.517Z,13.75
2023-04-16T19:19:25.068Z,12.09
2023-04-16T19:24:27.640Z,11.47
2023-04-16T19:29:34.083Z,12.60
2023-04-16T19:34:36.820Z,13.08
2023-04-16T19:39:39.388Z,13.52
2023-04-16T19:44:41.914Z,13.80
2023-04-16T19:49:44.444Z,14.00
2023-04-16T19:54:47.779Z,13.52
2023-04-16T19:59:50.488Z,11.84
2023-04-16T20:04:53.235Z,11.29
2023-04-16T20:09:55.864Z,12.50
2023-04-16T20:14:58.547Z,13.17
2023-04-16T20:20:07.199Z,13.53
2023-04-16T20:25:10.110Z,13.73
2023-04-16T20:30:13.931Z,13.97
2023-04-16T20:35:16.636Z,13.00
2023-04-16T20:40:19.919Z,11.37
2023-04-16T20:45:24.228Z,11.01
2023-04-16T20:50:26.788Z,12.18
2023-04-16T20:55:29.321Z,12.83
2023-04-16T21:00:31.849Z,13.25
2023-04-16T21:05:34.437Z,13.54
2023-04-16T21:10:36.940Z,13.78
2023-04-16T21:15:40.427Z,13.93
2023-04-16T21:20:43.090Z,14.07
2023-04-16T21:25:45.664Z,13.47
2023-04-16T21:30:52.253Z,11.69
2023-04-16T21:35:55.049Z,10.57
2023-04-16T21:40:57.649Z,10.53
2023-04-16T21:46:00.405Z,12.12
2023-04-16T21:51:06.617Z,13.01
2023-04-16T21:56:09.399Z,13.52
2023-04-16T22:01:12.251Z,13.89
2023-04-16T22:06:16.708Z,14.23
2023-04-16T22:11:19.349Z,13.74
2023-04-16T22:16:21.913Z,11.98
2023-04-16T22:21:24.893Z,11.50
2023-04-16T22:26:27.610Z,12.83
2023-04-16T22:31:30.200Z,13.56
2023-04-16T22:36:32.779Z,13.83
2023-04-16T22:41:36.806Z,13.97
2023-04-16T22:46:39.383Z,14.16
2023-04-16T22:51:42.486Z,13.68
2023-04-16T22:56:46.774Z,12.05
2023-04-16T23:01:49.686Z,10.99
2023-04-16T23:06:52.366Z,10.96
2023-04-16T23:11:54.861Z,12.29
2023-04-16T23:16:57.566Z,12.96
2023-04-16T23:22:00.066Z,13.37
2023-04-16T23:27:02.690Z,13.71
2023-04-16T23:32:05.660Z,13.98
2023-04-16T23:37:08.153Z,14.16
2023-04-16T23:42:11.263Z,13.61
2023-04-16T23:47:13.804Z,11.92
2023-04-16T23:52:16.334Z,11.45
2023-04-16T23:57:18.829Z,12.60
